Share

Grantley Adams, Barbados

4:15 AM AST on April 25, 2014 (GMT -0400)
Foul Bay (ISTPHILI2) Elev 115 ft | 13.10 °N, 59.45 °W | Change Station

Current weather conditions updated 4 seconds ago

Mostly Cloudy
Mostly Cloudy
79.3 °F
Feels Like 82 °F
N
6.0
Wind Variable Wind from East
Gusts 15.2 mph
Sunrise 5:39 AM
Sunset 6:12 PM
Moon Waning Crescent

Today is forecast to be Much Cooler than yesterday.

Pressure 29.95 in
Visibility 6.2 miles
Clouds Scattered Clouds 1800 ft
Mostly Cloudy 30000 ft
Heat Index 82 °F
Dew Point 69 °F
Humidity 71%
Rainfall 0.00 in
Snow Depth Not available.
UV 0 out of 16
Pollen Not available.
Air Quality Not available.
Flu Activity Not available.
METAR TBPB 250800Z 10010KT 9999 SCT018 BKN300 26/23 Q1014 NOSIG

More Conditions Fewer Conditions

Pressure 29.95 in
Visibility 6.2 miles
Clouds Scattered Clouds 1800 ft
Mostly Cloudy 30000 ft
Heat Index 82 °F
Dew Point 69 °F
Humidity 71%
Rainfall 0.00 in
Snow Depth Not available.
UV 0 out of 16
Pollen Not available.
Air Quality Not available.
Flu Activity Not available.
METAR TBPB 250800Z 10010KT 9999 SCT018 BKN300 26/23 Q1014 NOSIG

More Conditions Fewer Conditions

10-Day Weather Forecast

Almanac

Astronomy

Apr. 25, 2014 Rise Set
Actual Time 5:39 AM AST 6:12 PM AST
Civil Twilight 5:17 AM AST 6:33 PM AST
Nautical Twilight 4:52 AM AST 6:59 PM AST
Astronomical Twilight 4:26 AM AST 7:25 PM AST
Moon 2:43 AM AST 3:04 PM AST
Length of Visible Light 13h 15m
Length of Day
12h 32m
Tomorrow will be 0m 39s longer.
Waning Crescent, 18% of the Moon is Illuminated
Today
Waning Crescent
Apr 29
New
May 6
First Quarter
May 14
Full
May 21
Last Quarter

Yesterday's Extremes

Country Highs Country Lows

Community

  • Deer in evening light
    Deer in evening light
  • Critter
    Critter
  • Jone Runs Falls
    Jone Runs Falls
  • Easter in Shenandoah National Park
    Easter in Shenandoah National Park
  • Sunset at Apalachicola Bay, Florida
    Sunset at Apalachicola Bay, Florida

WunderPhotos

Upload Photos

1,704,873 photos uploaded!

WunderBlogs® & News

Nearby

Snow Depth

Not available.

Coastal Water Temperatures

Place Temperature
No Stations Reporting

Earthquake Activity

City Distance Mag. Time & Date
No recent earthquake activity has been reported nearby.
Minimum magnitude displayed is 2.5.

Nearby Weather Stations

Station Location Temp. Heat Index Dew Point Humidity Wind Precip. Elev Updated Type
Foul Bay, St. Philip 79.3 °F 82 °F 69 °F 71% East  at  6.0 mph 0.00 in / hr 115 ft 4:15 AM AST Rapid Fire
Mount Pleasant 75.8 °F 76 °F 72 °F 88% ENE  at  4.0 mph 0.00 in / hr 548 ft 4:15 AM AST Rapid Fire
Barbados, Rockley 79.0 °F 77 °F - - ESE  at  0.0 mph 0.00 in / hr 30 ft 4:15 AM AST Rapid Fire

Show More Stations Show Fewer Stations

What do you think?

We're not finished. Please let us know what you like, what you don't like, and what you are still missing.